Etusivu
METAR-TAF:

METAR-TAF

Lentoasemat :

Meknes, Marokko

Leveyspiiri: 33-53N, Pituuspiiri: 005-32W, korkeus merenpinnasta: 576 m

METAR: puuttuu

Aika: 13:49 (12:49 UTC)

Sääennuste

Tämä raportti tehtiin 7 tuntia ja 49 minuuttia sitten, kello 05.00 UTC
Ennuste voimassa 23. päivästä klo 06 UTC - 24. päivään klo 12 UTC
Tuuli 6 kn etelästä
Näkyvyys: 8000 m
Muutamia pilviä 1600 ft:n korkeudessa
Hajanaisia pilviä 8000 ft:n korkeudessa
Tulossa
23. päivästä klo 12 UTC - 23. päivään klo 16 UTC
Tuuli 10 kn luoteesta
Näkyvyys 10 km tai enemmän
Hajonneita pilviä 1600 ft:n korkeudessa

TAF: GMFM 230500Z 2306/2412 18006KT 8000 FEW016 SCT080 BECMG 2312/2316 32010KT 9999 BKN016

Säähavainnot ja -ennusteet yli 4000 lentoasemalta (METAR- ja TAF-raportit).

Käytössä olevat sääasemat on merkitty karttaan keltaisilla ja punaisilla pisteillä.

Aseta hiiri pisteen päälle nähdäksesi sääaseman nimen.

Klikkaa sitten nähdäksesi säähavainnot ja -ennusteet.

Kartan vaihtaminen: klikkaa mustalla rastilla varustettuja vihreitä pisteitä, niin voit zoomata sisään; viivalla varustettua vihreää pistettä, niin voit zoomata ulos tai vihreitä nuolia, niin pääset viereisille kartoille.


METAR-TAF: